This is the latest recevied weather packets stored in our database for station/object W9WRP. If no packets are shown the sender has not sent any weather packets the latest 10 day(s).
| Time | Temp. | Humidity | Pressure | Rain* | Wind** | Luminosity | Snow |
|---|---|---|---|---|---|---|---|
| 1787839672 | 30.56° C | 34% | 1015 hPa | 0 mm | - | 64 W/m² | - |
| 1787839372 | 30.56° C | 33% | 1014.8 hPa | 0 mm | - | 58 W/m² | - |
| 1787839066 | 30.56° C | 32% | 1014.5 hPa | 0 mm | - | 53 W/m² | - |
| 1787838765 | 30.56° C | 33% | 1014.7 hPa | 0 mm | - | 47 W/m² | - |
| 1787838465 | 30.56° C | 32% | 1014.5 hPa | 0 mm | - | 40 W/m² | - |
| 1787838158 | 31.11° C | 32% | 1014.6 hPa | 0 mm | - | 32 W/m² | - |
| 1787837853 | 31.11° C | 31% | 1014.6 hPa | 0 mm | - | 27 W/m² | - |
| 1787837552 | 32.22° C | 29% | 1014.6 hPa | 0 mm | - | 22 W/m² | - |
| 1787837247 | 32.78° C | 26% | 1014.4 hPa | 0 mm | - | 16 W/m² | - |
| 1787836947 | 32.22° C | 29% | 1014.3 hPa | 0 mm | - | 11 W/m² | - |
| 1787836642 | 32.78° C | 31% | 1014 hPa | 0 mm | - | 8 W/m² | - |
| 1787836341 | 31.11° C | 27% | 1014.3 hPa | 0 mm | - | 5 W/m² | - |
| 1787836037 | 28.33° C | 31% | 1014.2 hPa | 0 mm | - | 3 W/m² | - |
| 1787835733 | 28.89° C | 36% | 1013.6 hPa | 0 mm | - | 2 W/m² | - |
| 1787835428 | 29.44° C | 26% | 1014 hPa | 0 mm | - | 1 W/m² | - |
| 1787835123 | 29.44° C | 25% | 1014.1 hPa | 0 mm | - | 0 W/m² | - |
| 1787834821 | 28.89° C | 25% | 1014.3 hPa | 0 mm | - | 0 W/m² | - |
| 1787834516 | 29.44° C | 26% | 1014.4 hPa | 0 mm | - | 0 W/m² | - |
| 1787834212 | 29.44° C | 26% | 1013.9 hPa | 0 mm | - | 0 W/m² | - |
| 1787833907 | 29.44° C | 25% | 1014.1 hPa | 0 mm | - | 0 W/m² | - |
| 1787833602 | 29.44° C | 25% | 1013.8 hPa | 0 mm | - | 0 W/m² | - |
| 1787833298 | 29.44° C | 25% | 1013.7 hPa | 0 mm | - | 0 W/m² | - |
| 1787832992 | 29.44° C | 25% | 1013.9 hPa | 0 mm | - | 0 W/m² | - |
| 1787832689 | 30° C | 25% | 1013.9 hPa | 0 mm | - | 0 W/m² | - |
| 1787832387 | 30° C | 25% | 1014 hPa | 0 mm | - | 0 W/m² | - |
* Rain latest hour (hover to see other rain measurements)
** Current wind speed in m/s (hover to see current wind gust speed)